createdAt,value
2019-04-16T00:00:56.729Z,1019.44
2019-04-16T00:01:56.745Z,1019.41
2019-04-16T00:02:56.759Z,1019.44
2019-04-16T00:03:56.775Z,1019.43
2019-04-16T00:04:57.582Z,1019.43
2019-04-16T00:05:58.879Z,1019.44
2019-04-16T00:06:56.822Z,1019.44
2019-04-16T00:07:56.837Z,1019.44
2019-04-16T00:08:58.190Z,1019.4
2019-04-16T00:10:56.883Z,1019.38
2019-04-16T00:11:56.900Z,1019.39
2019-04-16T00:12:56.915Z,1019.36
2019-04-16T00:13:56.930Z,1019.37
2019-04-16T00:14:56.946Z,1019.37
2019-04-16T00:15:56.963Z,1019.35
2019-04-16T00:16:56.977Z,1019.37
2019-04-16T00:17:56.994Z,1019.35
2019-04-16T00:18:58.946Z,1019.35
2019-04-16T00:19:57.023Z,1019.32
2019-04-16T00:20:57.038Z,1019.33
2019-04-16T00:21:57.245Z,1019.3
2019-04-16T00:22:57.069Z,1019.28
2019-04-16T00:23:57.085Z,1019.27
2019-04-16T00:24:57.100Z,1019.31
2019-04-16T00:26:59.055Z,1019.26
2019-04-16T00:27:59.474Z,1019.24
2019-04-16T00:29:01.559Z,1019.25
2019-04-16T00:29:57.177Z,1019.21
2019-04-16T00:30:57.192Z,1019.21
2019-04-16T00:31:57.206Z,1019.18
2019-04-16T00:32:57.224Z,1019.14
2019-04-16T00:33:57.238Z,1019.12
2019-04-16T00:34:57.255Z,1019.11
2019-04-16T00:35:57.268Z,1019.11
2019-04-16T00:36:57.283Z,1019.1
2019-04-16T00:37:57.299Z,1019.11
2019-04-16T00:38:57.315Z,1019.07
2019-04-16T00:39:57.365Z,1019.1
2019-04-16T00:41:57.426Z,1019.08
2019-04-16T00:42:57.431Z,1019.11
2019-04-16T00:43:57.516Z,1019.11
2019-04-16T00:44:57.521Z,1019.14
2019-04-16T00:45:57.563Z,1019.1
2019-04-16T00:46:57.438Z,1019.07
2019-04-16T00:47:57.615Z,1019.1
2019-04-16T00:48:57.702Z,1019.07
2019-04-16T00:49:58.931Z,1019.11
2019-04-16T00:50:57.498Z,1019.05
2019-04-16T00:51:57.514Z,1019.04
2019-04-16T00:52:57.528Z,1019.04
2019-04-16T00:53:57.542Z,1019
2019-04-16T00:54:57.557Z,1019.04
2019-04-16T00:55:57.573Z,1019.01
2019-04-16T00:56:57.588Z,1019.02
2019-04-16T00:57:57.603Z,1019.02
2019-04-16T00:58:57.618Z,1018.97
2019-04-16T00:59:57.633Z,1018.94
2019-04-16T01:00:57.648Z,1018.99
2019-04-16T01:01:57.663Z,1018.94
2019-04-16T01:02:57.679Z,1018.95
2019-04-16T01:03:57.693Z,1018.89
2019-04-16T01:04:57.711Z,1018.96
2019-04-16T01:05:57.723Z,1018.91
2019-04-16T01:06:57.739Z,1018.88
2019-04-16T01:07:57.754Z,1018.92
2019-04-16T01:08:57.769Z,1018.93
2019-04-16T01:09:57.786Z,1018.9
2019-04-16T01:10:57.799Z,1018.96
2019-04-16T01:11:57.816Z,1018.93
2019-04-16T01:13:57.844Z,1018.93
2019-04-16T01:15:00.362Z,1018.94
2019-04-16T01:16:02.420Z,1018.95
2019-04-16T01:16:57.889Z,1018.96
2019-04-16T01:17:57.904Z,1018.93
2019-04-16T01:18:57.919Z,1019
2019-04-16T01:19:58.056Z,1018.93
2019-04-16T01:20:58.088Z,1018.94
2019-04-16T01:21:58.071Z,1018.92
2019-04-16T01:22:57.978Z,1018.9
2019-04-16T01:23:57.994Z,1018.89
2019-04-16T01:24:58.009Z,1018.91
2019-04-16T01:25:58.024Z,1018.84
2019-04-16T01:26:59.092Z,1018.9
2019-04-16T01:28:00.599Z,1018.88
2019-04-16T01:29:58.086Z,1018.84
2019-04-16T01:30:58.098Z,1018.84
2019-04-16T01:31:58.113Z,1018.84
2019-04-16T01:32:58.129Z,1018.84
2019-04-16T01:33:58.142Z,1018.85
2019-04-16T01:34:58.157Z,1018.83
2019-04-16T01:35:58.173Z,1018.82
2019-04-16T01:36:58.188Z,1018.8
2019-04-16T01:37:58.202Z,1018.79
2019-04-16T01:39:14.045Z,1018.79
2019-04-16T01:39:58.232Z,1018.81
2019-04-16T01:40:58.247Z,1018.78
2019-04-16T01:41:58.271Z,1018.79
2019-04-16T01:42:58.276Z,1018.84
2019-04-16T01:43:58.467Z,1018.81
2019-04-16T01:46:01.243Z,1018.8
2019-04-16T01:46:58.336Z,1018.84
2019-04-16T01:47:58.351Z,1018.83
2019-04-16T01:48:58.365Z,1018.87
2019-04-16T01:49:58.381Z,1018.85
2019-04-16T01:50:58.395Z,1018.88
2019-04-16T01:51:58.411Z,1018.83
2019-04-16T01:52:58.424Z,1018.88
2019-04-16T01:53:58.523Z,1018.85
2019-04-16T01:54:58.600Z,1018.85
2019-04-16T01:55:58.621Z,1018.87
2019-04-16T01:56:59.710Z,1018.88
2019-04-16T01:57:59.421Z,1018.87
2019-04-16T01:58:58.647Z,1018.9
2019-04-16T01:59:58.731Z,1018.87
2019-04-16T02:01:58.557Z,1018.89
2019-04-16T02:02:58.574Z,1018.87
2019-04-16T02:03:58.996Z,1018.87
2019-04-16T02:04:58.602Z,1018.83
2019-04-16T02:05:58.616Z,1018.87
2019-04-16T02:06:58.630Z,1018.81
2019-04-16T02:07:59.183Z,1018.83
2019-04-16T02:09:01.514Z,1018.8
2019-04-16T02:09:58.676Z,1018.81
2019-04-16T02:10:58.692Z,1018.83
2019-04-16T02:11:58.705Z,1018.83
2019-04-16T02:12:58.721Z,1018.81
2019-04-16T02:13:58.735Z,1018.83
2019-04-16T02:14:58.751Z,1018.84
2019-04-16T02:16:58.781Z,1018.86
2019-04-16T02:17:59.634Z,1018.82
2019-04-16T02:19:01.081Z,1018.86
2019-04-16T02:20:01.597Z,1018.86
2019-04-16T02:20:58.843Z,1018.86
2019-04-16T02:21:58.856Z,1018.86
2019-04-16T02:22:58.866Z,1018.85
2019-04-16T02:23:58.882Z,1018.87
2019-04-16T02:24:58.907Z,1018.89
2019-04-16T02:25:58.916Z,1018.87
2019-04-16T02:26:58.927Z,1018.89
2019-04-16T02:27:58.940Z,1018.88
2019-04-16T02:28:59.559Z,1018.89
2019-04-16T02:30:02.291Z,1018.9
2019-04-16T02:30:58.990Z,1018.87
2019-04-16T02:31:58.999Z,1018.91
2019-04-16T02:32:59.017Z,1018.91
2019-04-16T02:33:59.051Z,1018.94
2019-04-16T02:34:59.043Z,1018.97
2019-04-16T02:35:59.057Z,1018.95
2019-04-16T02:37:01.955Z,1018.99
2019-04-16T02:37:59.087Z,1018.95
2019-04-16T02:38:59.101Z,1018.96
2019-04-16T02:39:59.116Z,1018.96
2019-04-16T02:40:59.130Z,1018.95
2019-04-16T02:41:59.271Z,1018.96
2019-04-16T02:43:03.907Z,1018.95
2019-04-16T02:43:59.173Z,1018.96
2019-04-16T02:44:59.188Z,1018.93
2019-04-16T02:45:59.204Z,1018.92
2019-04-16T02:47:04.516Z,1018.92
2019-04-16T02:48:59.246Z,1018.93
2019-04-16T02:49:59.267Z,1018.9
2019-04-16T02:51:05.042Z,1018.92
2019-04-16T02:51:59.289Z,1018.87
2019-04-16T02:52:59.306Z,1018.87
2019-04-16T02:53:59.990Z,1018.89
2019-04-16T02:54:59.334Z,1018.87
2019-04-16T02:55:59.348Z,1018.88
2019-04-16T02:56:59.370Z,1018.86
2019-04-16T02:58:01.057Z,1018.88
2019-04-16T02:58:59.392Z,1018.9
2019-04-16T02:59:59.406Z,1018.87
2019-04-16T03:00:59.421Z,1018.88
2019-04-16T03:01:59.434Z,1018.86
2019-04-16T03:02:59.449Z,1018.86
2019-04-16T03:04:59.479Z,1018.89
2019-04-16T03:06:00.872Z,1018.88
2019-04-16T03:07:02.661Z,1018.86
2019-04-16T03:08:01.367Z,1018.89
2019-04-16T03:08:59.536Z,1018.86
2019-04-16T03:10:01.308Z,1018.83
2019-04-16T03:10:59.574Z,1018.86
2019-04-16T03:11:59.580Z,1018.81
2019-04-16T03:12:59.594Z,1018.84
2019-04-16T03:13:59.609Z,1018.83
2019-04-16T03:15:01.043Z,1018.81
2019-04-16T03:16:02.548Z,1018.82
2019-04-16T03:16:59.652Z,1018.81
2019-04-16T03:17:59.666Z,1018.78
2019-04-16T03:18:59.684Z,1018.78
2019-04-16T03:20:59.710Z,1018.74
2019-04-16T03:22:01.965Z,1018.79
2019-04-16T03:23:04.659Z,1018.78
2019-04-16T03:23:59.753Z,1018.78
2019-04-16T03:24:59.767Z,1018.82
2019-04-16T03:25:59.782Z,1018.73
2019-04-16T03:26:59.797Z,1018.85
2019-04-16T03:27:59.811Z,1018.79
2019-04-16T03:28:59.826Z,1018.83
2019-04-16T03:30:03.308Z,1018.82
2019-04-16T03:30:59.855Z,1018.83
2019-04-16T03:31:59.985Z,1018.86
2019-04-16T03:32:59.886Z,1018.87
2019-04-16T03:33:59.974Z,1018.89
2019-04-16T03:34:59.911Z,1018.84
2019-04-16T03:37:01.805Z,1018.85
2019-04-16T03:38:01.555Z,1018.86
2019-04-16T03:38:59.969Z,1018.83
2019-04-16T03:39:59.983Z,1018.85
2019-04-16T03:40:59.999Z,1018.85
2019-04-16T03:42:00.012Z,1018.83
2019-04-16T03:43:02.363Z,1018.84
2019-04-16T03:44:03.574Z,1018.85
2019-04-16T03:45:00.056Z,1018.86
2019-04-16T03:46:00.069Z,1018.85
2019-04-16T03:47:00.084Z,1018.88
2019-04-16T03:48:00.099Z,1018.86
2019-04-16T03:49:00.113Z,1018.87
2019-04-16T03:50:00.264Z,1018.82
2019-04-16T03:52:00.157Z,1018.83
2019-04-16T03:53:00.171Z,1018.82
2019-04-16T03:54:00.185Z,1018.84
2019-04-16T03:55:00.200Z,1018.84
2019-04-16T03:56:00.224Z,1018.88
2019-04-16T03:57:02.043Z,1018.84
2019-04-16T03:58:05.044Z,1018.86
2019-04-16T03:59:00.258Z,1018.85
2019-04-16T04:00:00.832Z,1018.81
2019-04-16T04:01:00.285Z,1018.85
2019-04-16T04:02:00.301Z,1018.81
2019-04-16T04:03:00.320Z,1018.82
2019-04-16T04:04:00.328Z,1018.83
2019-04-16T04:05:01.091Z,1018.84
2019-04-16T04:06:00.358Z,1018.83
2019-04-16T04:07:00.372Z,1018.84
2019-04-16T04:08:00.386Z,1018.87
2019-04-16T04:09:00.399Z,1018.86
2019-04-16T04:10:00.419Z,1018.85
2019-04-16T04:11:00.428Z,1018.84
2019-04-16T04:12:00.442Z,1018.83
2019-04-16T04:13:00.456Z,1018.82
2019-04-16T04:14:00.477Z,1018.85
2019-04-16T04:15:00.484Z,1018.84
2019-04-16T04:16:01.474Z,1018.88
2019-04-16T04:17:05.140Z,1018.85
2019-04-16T04:18:00.528Z,1018.84
2019-04-16T04:19:00.542Z,1018.87
2019-04-16T04:20:00.557Z,1018.87
2019-04-16T04:21:00.574Z,1018.87
2019-04-16T04:22:00.585Z,1018.9
2019-04-16T04:24:00.963Z,1018.92
2019-04-16T04:25:04.254Z,1018.93
2019-04-16T04:26:00.642Z,1018.92
2019-04-16T04:27:00.657Z,1018.88
2019-04-16T04:28:00.671Z,1018.96
2019-04-16T04:29:00.685Z,1018.93
2019-04-16T04:30:00.699Z,1018.95
2019-04-16T04:31:01.891Z,1018.95
2019-04-16T04:32:03.337Z,1018.94
2019-04-16T04:33:00.742Z,1018.92
2019-04-16T04:34:00.756Z,1018.92
2019-04-16T04:35:00.771Z,1018.89
2019-04-16T04:36:00.786Z,1018.89
2019-04-16T04:37:00.801Z,1018.93
2019-04-16T04:38:03.768Z,1018.89
2019-04-16T04:40:00.845Z,1018.92
2019-04-16T04:41:00.857Z,1018.92
2019-04-16T04:42:00.872Z,1018.93
2019-04-16T04:43:01.719Z,1018.96
2019-04-16T04:44:04.272Z,1018.94
2019-04-16T04:45:00.915Z,1018.96
2019-04-16T04:46:00.932Z,1019.01
2019-04-16T04:47:00.944Z,1019.09
2019-04-16T04:48:00.958Z,1019.11
2019-04-16T04:49:00.973Z,1019.1
2019-04-16T04:50:03.288Z,1019.18
2019-04-16T04:51:06.659Z,1019.19
2019-04-16T04:52:01.019Z,1019.23
2019-04-16T04:53:01.035Z,1019.24
2019-04-16T04:54:01.055Z,1019.33
2019-04-16T04:56:01.083Z,1019.34
2019-04-16T04:57:01.105Z,1019.3
2019-04-16T04:58:02.656Z,1019.32
2019-04-16T04:59:02.407Z,1019.33
2019-04-16T05:00:01.153Z,1019.36
2019-04-16T05:01:01.172Z,1019.39
2019-04-16T05:02:01.190Z,1019.41
2019-04-16T05:03:01.208Z,1019.48
2019-04-16T05:04:02.185Z,1019.49
2019-04-16T05:05:01.248Z,1019.54
2019-04-16T05:06:01.265Z,1019.52
2019-04-16T05:07:04.547Z,1019.55
2019-04-16T05:08:01.305Z,1019.55
2019-04-16T05:09:01.438Z,1019.55
2019-04-16T05:10:01.345Z,1019.55
2019-04-16T05:12:01.388Z,1019.58
2019-04-16T05:13:01.407Z,1019.58
2019-04-16T05:14:01.427Z,1019.65
2019-04-16T05:15:03.817Z,1019.65
2019-04-16T05:16:02.557Z,1019.66
2019-04-16T05:17:03.515Z,1019.62
2019-04-16T05:18:01.515Z,1019.65
2019-04-16T05:19:01.539Z,1019.66
2019-04-16T05:20:01.571Z,1019.59
2019-04-16T05:21:01.581Z,1019.56
2019-04-16T05:22:01.603Z,1019.56
2019-04-16T05:23:01.626Z,1019.62
2019-04-16T05:24:01.649Z,1019.63
2019-04-16T05:25:02.482Z,1019.63
2019-04-16T05:27:01.717Z,1019.69
2019-04-16T05:28:01.742Z,1019.71
2019-04-16T05:29:01.761Z,1019.7
2019-04-16T05:30:01.784Z,1019.66
2019-04-16T05:31:01.808Z,1019.72
2019-04-16T05:32:01.833Z,1019.74
2019-04-16T05:33:04.844Z,1019.62
2019-04-16T05:34:02.367Z,1019.61
2019-04-16T05:35:01.899Z,1019.67
2019-04-16T05:36:01.923Z,1019.73
2019-04-16T05:37:01.946Z,1019.75
2019-04-16T05:38:01.970Z,1019.92
2019-04-16T05:39:03.632Z,1019.99
2019-04-16T05:40:02.019Z,1020.01
2019-04-16T05:41:12.402Z,1020.01
2019-04-16T05:42:02.064Z,1019.93
2019-04-16T05:43:02.087Z,1019.87
2019-04-16T05:44:02.170Z,1019.86
2019-04-16T05:45:02.370Z,1019.84
2019-04-16T05:46:02.159Z,1019.91
2019-04-16T05:47:02.185Z,1019.95
2019-04-16T05:48:02.209Z,1019.93
2019-04-16T05:49:02.234Z,1019.97
2019-04-16T05:50:02.257Z,1019.96
2019-04-16T05:51:02.282Z,1020.04
2019-04-16T05:52:03.712Z,1020.02
2019-04-16T05:53:02.334Z,1020.07
2019-04-16T05:54:02.357Z,1020.08
2019-04-16T05:55:02.450Z,1020.18
2019-04-16T05:56:02.408Z,1020.19
2019-04-16T05:57:02.432Z,1020.21
2019-04-16T05:59:03.280Z,1020.29
2019-04-16T06:00:02.831Z,1020.35
2019-04-16T06:01:02.561Z,1020.43
2019-04-16T06:02:02.561Z,1020.46
2019-04-16T06:03:02.587Z,1020.49
2019-04-16T06:04:02.614Z,1020.54
2019-04-16T06:05:02.642Z,1020.61
2019-04-16T06:06:02.666Z,1020.7
2019-04-16T06:07:07.200Z,1020.73
2019-04-16T06:08:02.742Z,1020.77
2019-04-16T06:09:02.750Z,1020.87
2019-04-16T06:10:02.773Z,1020.9
2019-04-16T06:11:02.800Z,1021
2019-04-16T06:12:02.826Z,1021
2019-04-16T06:13:02.858Z,1021.07
2019-04-16T06:15:02.909Z,1021.13
2019-04-16T06:16:02.936Z,1021.18
2019-04-16T06:17:02.963Z,1021.23
2019-04-16T06:18:05.349Z,1021.24
2019-04-16T06:19:03.018Z,1021.18
2019-04-16T06:20:03.047Z,1021.23
2019-04-16T06:21:03.084Z,1021.26
2019-04-16T06:22:03.105Z,1021.36
2019-04-16T06:23:03.129Z,1021.27
2019-04-16T06:24:04.124Z,1021.29
2019-04-16T06:25:08.145Z,1021.19
2019-04-16T06:26:03.215Z,1021.19
2019-04-16T06:27:03.242Z,1021.27
2019-04-16T06:28:03.270Z,1021.22
2019-04-16T06:29:03.302Z,1021.21
2019-04-16T06:31:05.262Z,1021.21
2019-04-16T06:32:03.384Z,1021.18
2019-04-16T06:33:03.412Z,1021.07
2019-04-16T06:34:03.440Z,1021.1
2019-04-16T06:35:03.475Z,1021.21
2019-04-16T06:36:03.504Z,1021.11
2019-04-16T06:37:03.526Z,1021.15
2019-04-16T06:38:03.557Z,1021.14
2019-04-16T06:39:03.583Z,1021.13
2019-04-16T06:40:03.612Z,1021.09
2019-04-16T06:41:04.187Z,1021.06
2019-04-16T06:42:03.669Z,1021.12
2019-04-16T06:43:03.698Z,1021.05
2019-04-16T06:44:04.223Z,1021.14
2019-04-16T06:45:04.792Z,1021.1
2019-04-16T06:47:03.814Z,1021.03
2019-04-16T06:48:03.842Z,1021.03
2019-04-16T06:49:03.871Z,1021.03
2019-04-16T06:50:03.907Z,1021.04
2019-04-16T06:51:03.931Z,1021.02
2019-04-16T06:52:03.958Z,1021.07
2019-04-16T06:53:03.990Z,1021.09
2019-04-16T06:54:04.017Z,1021.11
2019-04-16T06:55:04.355Z,1021.06
2019-04-16T06:56:05.432Z,1021.04
2019-04-16T06:57:04.112Z,1021
2019-04-16T06:58:04.137Z,1021
2019-04-16T06:59:04.170Z,1020.95
2019-04-16T07:00:06.886Z,1020.86
2019-04-16T07:02:04.256Z,1020.86
2019-04-16T07:03:04.283Z,1020.82
2019-04-16T07:04:06.686Z,1020.8
2019-04-16T07:05:04.342Z,1020.75
2019-04-16T07:06:04.800Z,1020.7
2019-04-16T07:07:07.720Z,1020.7
2019-04-16T07:08:04.429Z,1020.68
2019-04-16T07:09:04.463Z,1020.66
2019-04-16T07:10:04.488Z,1020.66
2019-04-16T07:11:04.518Z,1020.65
2019-04-16T07:12:04.548Z,1020.57
2019-04-16T07:13:09.895Z,1020.6
2019-04-16T07:14:05.412Z,1020.56
2019-04-16T07:15:04.637Z,1020.49
2019-04-16T07:16:04.667Z,1020.51
2019-04-16T07:17:04.702Z,1020.52
2019-04-16T07:18:05.346Z,1020.5
2019-04-16T07:19:10.102Z,1020.49
2019-04-16T07:20:05.061Z,1020.46
2019-04-16T07:21:04.817Z,1020.28
2019-04-16T07:22:04.849Z,1020.15
2019-04-16T07:23:04.876Z,1020.17
2019-04-16T07:24:04.906Z,1020.15
2019-04-16T07:25:05.601Z,1020.11
2019-04-16T07:26:05.039Z,1020.14
2019-04-16T07:27:04.998Z,1020.1
2019-04-16T07:28:05.025Z,1020.14
2019-04-16T07:29:05.134Z,1020.16
2019-04-16T07:30:07.542Z,1020.12
2019-04-16T07:31:05.344Z,1020.13
2019-04-16T07:32:05.520Z,1020.15
2019-04-16T07:34:05.206Z,1020.13
2019-04-16T07:35:05.236Z,1020.14
2019-04-16T07:36:05.291Z,1020.09
2019-04-16T07:37:05.295Z,1020.11
2019-04-16T07:38:06.442Z,1020.15
2019-04-16T07:39:06.095Z,1020.15
2019-04-16T07:40:08.246Z,1020.16
2019-04-16T07:41:05.424Z,1020.11
2019-04-16T07:42:10.029Z,1020.12
2019-04-16T07:43:55.751Z,1020.17
2019-04-16T07:44:55.995Z,1020.21
2019-04-16T07:45:55.669Z,1020.3
2019-04-16T07:47:55.722Z,1020.22
2019-04-16T07:48:55.753Z,1020.2
2019-04-16T07:49:59.753Z,1020.2
2019-04-16T07:50:55.812Z,1020.19
2019-04-16T07:51:55.842Z,1020.19
2019-04-16T07:52:55.873Z,1020.18
2019-04-16T07:53:55.904Z,1020.19
2019-04-16T07:54:56.008Z,1020.16
2019-04-16T07:55:55.963Z,1020.16
2019-04-16T07:56:56.143Z,1020.17
2019-04-16T07:57:56.024Z,1020.18
2019-04-16T07:58:59.880Z,1020.18
2019-04-16T07:59:56.083Z,1020.13
2019-04-16T08:00:56.112Z,1020.05
2019-04-16T08:01:56.143Z,1020.07
2019-04-16T08:03:56.713Z,1020.01
2019-04-16T08:04:56.473Z,1020
2019-04-16T08:05:56.261Z,1019.97
2019-04-16T08:06:56.291Z,1020
2019-04-16T08:07:56.353Z,1020.01
2019-04-16T08:08:57.045Z,1020.04
2019-04-16T08:10:00.969Z,1020.05
2019-04-16T08:10:56.410Z,1020.1
2019-04-16T08:11:56.446Z,1020.05
2019-04-16T08:12:56.849Z,1020.04
2019-04-16T08:13:56.498Z,1020.07
2019-04-16T08:14:56.528Z,1020.09
2019-04-16T08:15:57.474Z,1020.08
2019-04-16T08:16:56.716Z,1020.07
2019-04-16T08:18:56.689Z,1020.04
2019-04-16T08:19:56.911Z,1020.07
2019-04-16T08:21:01.567Z,1020.08
2019-04-16T08:21:56.735Z,1020.07
2019-04-16T08:22:56.765Z,1020.06
2019-04-16T08:23:56.794Z,1020.02
2019-04-16T08:24:58.487Z,1020.01
2019-04-16T08:26:03.012Z,1020.03
2019-04-16T08:26:56.881Z,1020.02
2019-04-16T08:27:56.911Z,1020.01
2019-04-16T08:28:56.939Z,1019.99
2019-04-16T08:30:02.086Z,1020.08
2019-04-16T08:30:57.000Z,1020.05
2019-04-16T08:31:57.026Z,1020.04
2019-04-16T08:32:57.158Z,1020
2019-04-16T08:33:57.084Z,1020.01
2019-04-16T08:34:57.113Z,1020
2019-04-16T08:35:57.168Z,1019.99
2019-04-16T08:36:57.170Z,1019.9
2019-04-16T08:37:58.276Z,1019.78
2019-04-16T08:38:57.227Z,1019.75
2019-04-16T08:39:57.256Z,1019.74
2019-04-16T08:40:57.285Z,1019.74
2019-04-16T08:41:57.523Z,1019.74
2019-04-16T08:42:58.343Z,1019.74
2019-04-16T08:43:59.643Z,1019.76
2019-04-16T08:44:57.398Z,1019.75
2019-04-16T08:45:57.435Z,1019.74
2019-04-16T08:46:58.926Z,1019.74
2019-04-16T08:47:57.484Z,1019.71
2019-04-16T08:48:57.512Z,1019.72
2019-04-16T08:50:58.173Z,1019.67
2019-04-16T08:51:57.598Z,1019.63
2019-04-16T08:52:57.626Z,1019.64
2019-04-16T08:53:57.659Z,1019.6
2019-04-16T08:54:57.684Z,1019.65
2019-04-16T08:55:57.711Z,1019.65
2019-04-16T08:56:57.739Z,1019.65
2019-04-16T08:57:58.069Z,1019.63
2019-04-16T08:59:00.765Z,1019.61
2019-04-16T08:59:57.826Z,1019.62
2019-04-16T09:00:57.853Z,1019.69
2019-04-16T09:01:57.881Z,1019.52
2019-04-16T09:02:59.013Z,1019.52
2019-04-16T09:04:01.173Z,1019.54
2019-04-16T09:04:57.966Z,1019.59
2019-04-16T09:07:10.031Z,1019.61
2019-04-16T09:08:11.247Z,1019.51
2019-04-16T09:09:11.041Z,1019.56
2019-04-16T09:09:58.642Z,1019.5
2019-04-16T09:11:00.205Z,1019.51
2019-04-16T09:11:58.162Z,1019.49
2019-04-16T09:13:03.649Z,1019.5
2019-04-16T09:13:58.401Z,1019.46
2019-04-16T09:14:58.246Z,1019.42
2019-04-16T09:15:58.275Z,1019.48
2019-04-16T09:16:58.301Z,1019.38
2019-04-16T09:17:58.340Z,1019.42
2019-04-16T09:18:58.357Z,1019.4
2019-04-16T09:20:01.279Z,1019.45
2019-04-16T09:20:58.412Z,1019.46
2019-04-16T09:22:59.258Z,1019.34
2019-04-16T09:24:06.640Z,1019.35
2019-04-16T09:24:58.522Z,1019.4
2019-04-16T09:26:11.691Z,1019.41
2019-04-16T09:26:58.581Z,1019.51
2019-04-16T09:28:00.701Z,1019.43
2019-04-16T09:29:00.527Z,1019.42
2019-04-16T09:29:58.659Z,1019.44
2019-04-16T09:30:58.686Z,1019.43
2019-04-16T09:31:58.714Z,1019.41
2019-04-16T09:33:00.695Z,1019.41
2019-04-16T09:33:59.014Z,1019.42
2019-04-16T09:35:08.441Z,1019.36
2019-04-16T09:35:58.822Z,1019.37
2019-04-16T09:36:58.848Z,1019.27
2019-04-16T09:38:58.902Z,1019.29
2019-04-16T09:39:58.929Z,1019.25
2019-04-16T09:40:58.955Z,1019.31
2019-04-16T09:41:58.987Z,1019.41
2019-04-16T09:42:59.009Z,1019.38
2019-04-16T09:43:59.036Z,1019.32
2019-04-16T09:45:01.666Z,1019.3
2019-04-16T09:46:09.594Z,1019.26
2019-04-16T09:47:09.846Z,1019.34
2019-04-16T09:48:09.878Z,1019.3
2019-04-16T09:49:09.900Z,1019.28
2019-04-16T09:50:11.347Z,1019.29
2019-04-16T09:51:09.949Z,1019.22
2019-04-16T09:53:10.002Z,1019.38
2019-04-16T09:54:13.343Z,1019.32
2019-04-16T09:55:10.054Z,1019.35
2019-04-16T09:56:10.081Z,1019.41
2019-04-16T09:57:10.115Z,1019.41
2019-04-16T09:58:10.133Z,1019.35
2019-04-16T09:59:10.910Z,1019.34
2019-04-16T10:00:10.217Z,1019.33
2019-04-16T10:01:10.213Z,1019.28
2019-04-16T10:02:10.241Z,1019.35
2019-04-16T10:03:10.265Z,1019.26
2019-04-16T10:04:10.291Z,1019.28
2019-04-16T10:05:10.319Z,1019.33
2019-04-16T10:06:10.346Z,1019.26
2019-04-16T10:07:10.383Z,1019.28
2019-04-16T10:08:12.574Z,1019.24
2019-04-16T10:09:10.422Z,1019.25
2019-04-16T10:10:10.449Z,1019.2
2019-04-16T10:11:10.481Z,1019.29
2019-04-16T10:12:10.498Z,1019.18
2019-04-16T10:13:10.531Z,1019.2
2019-04-16T10:14:10.571Z,1019.24
2019-04-16T10:15:10.599Z,1019.23
2019-04-16T10:16:13.531Z,1019.17
2019-04-16T10:17:10.642Z,1019.16
2019-04-16T10:18:10.654Z,1019.06
2019-04-16T10:19:10.705Z,1018.93
2019-04-16T10:20:10.738Z,1018.95
2019-04-16T10:21:10.731Z,1019
2019-04-16T10:22:10.759Z,1019.15
2019-04-16T10:23:10.782Z,1019.12
2019-04-16T10:25:10.834Z,1019.02
2019-04-16T10:26:10.859Z,1019.02
2019-04-16T10:27:10.885Z,1019.07
2019-04-16T10:28:10.932Z,1019.03
2019-04-16T10:29:10.936Z,1019.05
2019-04-16T10:30:10.972Z,1019.04
2019-04-16T10:31:10.999Z,1019.04
2019-04-16T10:32:11.023Z,1019.03
2019-04-16T10:33:11.036Z,1019.06
2019-04-16T10:34:11.077Z,1019.01
2019-04-16T10:35:11.094Z,1018.97
2019-04-16T10:36:11.118Z,1019
2019-04-16T10:37:11.149Z,1019.04
2019-04-16T10:38:13.503Z,1019.03
2019-04-16T10:39:11.202Z,1019.03
2019-04-16T10:41:11.260Z,1018.98
2019-04-16T10:42:11.262Z,1019.01
2019-04-16T10:43:11.309Z,1018.98
2019-04-16T10:44:11.310Z,1018.98
2019-04-16T10:45:11.338Z,1018.97
2019-04-16T10:46:11.386Z,1019.01
2019-04-16T10:47:12.519Z,1019
2019-04-16T10:48:11.409Z,1018.9
2019-04-16T10:49:11.437Z,1018.96
2019-04-16T10:50:11.484Z,1018.88
2019-04-16T10:51:15.155Z,1018.87
2019-04-16T10:52:11.505Z,1018.88
2019-04-16T10:53:11.556Z,1018.87
2019-04-16T10:54:11.557Z,1018.89
2019-04-16T10:55:12.119Z,1018.86
2019-04-16T10:57:11.627Z,1018.8
2019-04-16T10:58:11.658Z,1018.81
2019-04-16T10:59:11.675Z,1018.87
2019-04-16T11:00:11.725Z,1018.83
2019-04-16T11:01:11.722Z,1018.82
2019-04-16T11:02:11.747Z,1018.8
2019-04-16T11:03:11.787Z,1018.84
2019-04-16T11:04:11.801Z,1018.85
2019-04-16T11:05:11.818Z,1018.77
2019-04-16T11:06:11.868Z,1018.77
2019-04-16T11:07:11.870Z,1018.73
2019-04-16T11:08:11.916Z,1018.69
2019-04-16T11:09:11.948Z,1018.72
2019-04-16T11:10:12.112Z,1018.73
2019-04-16T11:11:11.975Z,1018.71
2019-04-16T11:13:12.008Z,1018.71
2019-04-16T11:14:12.032Z,1018.71
2019-04-16T11:15:12.068Z,1018.66
2019-04-16T11:16:12.108Z,1018.75
2019-04-16T11:17:12.108Z,1018.78
2019-04-16T11:18:12.125Z,1018.7
2019-04-16T11:19:12.174Z,1018.67
2019-04-16T11:20:12.186Z,1018.71
2019-04-16T11:21:12.228Z,1018.78
2019-04-16T11:22:12.219Z,1018.74
2019-04-16T11:23:12.247Z,1018.79
2019-04-16T11:24:12.267Z,1018.81
2019-04-16T11:25:12.297Z,1018.74
2019-04-16T11:26:12.313Z,1018.67
2019-04-16T11:28:14.176Z,1018.66
2019-04-16T11:29:12.399Z,1018.66
2019-04-16T11:30:12.434Z,1018.6
2019-04-16T11:31:12.745Z,1018.65
2019-04-16T11:32:12.494Z,1018.58
2019-04-16T11:33:12.488Z,1018.56
2019-04-16T11:34:12.533Z,1018.64
2019-04-16T11:35:12.914Z,1018.57
2019-04-16T11:36:19.178Z,1018.67
2019-04-16T11:37:12.808Z,1018.59
2019-04-16T11:38:12.615Z,1018.71
2019-04-16T11:39:12.693Z,1018.64
2019-04-16T11:40:12.660Z,1018.69
2019-04-16T11:41:12.711Z,1018.66
2019-04-16T11:42:12.720Z,1018.59
2019-04-16T11:43:12.711Z,1018.65
2019-04-16T11:44:16.282Z,1018.6
2019-04-16T11:45:12.755Z,1018.57
2019-04-16T11:46:12.777Z,1018.62
2019-04-16T11:47:13.115Z,1018.56
2019-04-16T11:48:12.857Z,1018.57
2019-04-16T11:49:12.884Z,1018.59
2019-04-16T11:50:12.906Z,1018.73
2019-04-16T11:51:12.937Z,1018.64
2019-04-16T11:52:12.920Z,1018.76
2019-04-16T11:53:12.961Z,1018.7
2019-04-16T11:54:12.992Z,1018.63
2019-04-16T11:55:12.996Z,1018.56
2019-04-16T11:56:13.009Z,1018.56
2019-04-16T11:57:13.638Z,1018.58
2019-04-16T11:58:13.055Z,1018.56
2019-04-16T12:00:13.271Z,1018.61
2019-04-16T12:01:13.153Z,1018.63
2019-04-16T12:02:13.176Z,1018.53
2019-04-16T12:03:13.186Z,1018.6
2019-04-16T12:04:15.194Z,1018.6
2019-04-16T12:05:13.213Z,1018.53
2019-04-16T12:06:26.888Z,1018.56
2019-04-16T12:07:13.300Z,1018.53
2019-04-16T12:08:13.309Z,1018.63
2019-04-16T12:09:13.314Z,1018.57
2019-04-16T12:10:13.335Z,1018.48
2019-04-16T12:11:13.441Z,1018.46
2019-04-16T12:12:13.383Z,1018.62
2019-04-16T12:13:13.530Z,1018.51
2019-04-16T12:14:17.963Z,1018.41
2019-04-16T12:16:13.474Z,1018.51
2019-04-16T12:17:13.488Z,1018.51
2019-04-16T12:18:13.543Z,1018.37
2019-04-16T12:19:13.565Z,1018.49
2019-04-16T12:20:13.607Z,1018.37
2019-04-16T12:21:13.677Z,1018.39
2019-04-16T12:22:13.603Z,1018.34
2019-04-16T12:23:13.626Z,1018.37
2019-04-16T12:24:13.649Z,1018.44
2019-04-16T12:25:13.754Z,1018.59
2019-04-16T12:26:13.697Z,1018.48
2019-04-16T12:27:13.761Z,1018.38
2019-04-16T12:28:13.769Z,1018.4
2019-04-16T12:29:13.813Z,1018.36
2019-04-16T12:30:13.789Z,1018.39
2019-04-16T12:32:13.864Z,1018.32
2019-04-16T12:33:14.562Z,1018.37
2019-04-16T12:34:13.919Z,1018.25
2019-04-16T12:35:13.909Z,1018.3
2019-04-16T12:36:14.574Z,1018.31
2019-04-16T12:37:13.966Z,1018.32
2019-04-16T12:38:18.115Z,1018.38
2019-04-16T12:39:18.316Z,1018.29
2019-04-16T12:40:18.553Z,1018.33
2019-04-16T12:41:14.063Z,1018.32
2019-04-16T12:42:14.057Z,1018.33
2019-04-16T12:43:15.726Z,1018.28
2019-04-16T12:44:14.104Z,1018.29
2019-04-16T12:45:14.431Z,1018.28
2019-04-16T12:46:14.181Z,1018.32
2019-04-16T12:48:14.226Z,1018.23
2019-04-16T12:49:14.268Z,1018.26
2019-04-16T12:50:16.690Z,1018.2
2019-04-16T12:51:14.301Z,1018.2